sensor_id;sensor_type;location;lat;lon;timestamp;P1;durP1;ratioP1;P2;durP2;ratioP2
41946;SDS011;27638;42.184;24.848;2023-08-17T00:01:55;7.18;;;4.50;;
41946;SDS011;27638;42.184;24.848;2023-08-17T00:04:20;6.25;;;4.80;;
41946;SDS011;27638;42.184;24.848;2023-08-17T00:06:46;7.68;;;4.88;;
41946;SDS011;27638;42.184;24.848;2023-08-17T00:09:12;8.95;;;5.30;;
41946;SDS011;27638;42.184;24.848;2023-08-17T00:11:37;5.85;;;5.00;;
41946;SDS011;27638;42.184;24.848;2023-08-17T00:14:03;7.65;;;4.28;;
41946;SDS011;27638;42.184;24.848;2023-08-17T00:16:29;7.03;;;5.18;;
41946;SDS011;27638;42.184;24.848;2023-08-17T00:18:56;6.65;;;4.47;;
41946;SDS011;27638;42.184;24.848;2023-08-17T00:21:22;8.02;;;4.72;;
41946;SDS011;27638;42.184;24.848;2023-08-17T00:23:47;7.03;;;4.85;;
41946;SDS011;27638;42.184;24.848;2023-08-17T00:26:13;8.35;;;5.07;;
41946;SDS011;27638;42.184;24.848;2023-08-17T00:28:39;7.15;;;5.22;;
41946;SDS011;27638;42.184;24.848;2023-08-17T00:31:04;7.00;;;4.95;;
41946;SDS011;27638;42.184;24.848;2023-08-17T00:33:30;5.72;;;4.60;;
41946;SDS011;27638;42.184;24.848;2023-08-17T00:35:55;6.88;;;4.68;;
41946;SDS011;27638;42.184;24.848;2023-08-17T00:38:21;7.38;;;4.82;;
41946;SDS011;27638;42.184;24.848;2023-08-17T00:40:47;6.53;;;4.78;;
41946;SDS011;27638;42.184;24.848;2023-08-17T00:43:12;10.60;;;5.28;;
41946;SDS011;27638;42.184;24.848;2023-08-17T00:45:37;5.60;;;4.97;;
41946;SDS011;27638;42.184;24.848;2023-08-17T00:48:05;7.13;;;5.35;;
41946;SDS011;27638;42.184;24.848;2023-08-17T00:50:33;7.75;;;5.63;;
41946;SDS011;27638;42.184;24.848;2023-08-17T00:53:00;9.15;;;5.38;;
41946;SDS011;27638;42.184;24.848;2023-08-17T00:55:26;9.23;;;5.22;;
41946;SDS011;27638;42.184;24.848;2023-08-17T00:57:52;8.40;;;5.55;;
41946;SDS011;27638;42.184;24.848;2023-08-17T01:00:18;6.28;;;4.75;;
41946;SDS011;27638;42.184;24.848;2023-08-17T01:02:45;7.40;;;5.05;;
41946;SDS011;27638;42.184;24.848;2023-08-17T01:05:12;6.93;;;4.85;;
41946;SDS011;27638;42.184;24.848;2023-08-17T01:07:37;7.57;;;5.22;;
41946;SDS011;27638;42.184;24.848;2023-08-17T01:10:03;8.02;;;5.15;;
41946;SDS011;27638;42.184;24.848;2023-08-17T01:20:08;7.50;;;6.30;;
41946;SDS011;27638;42.184;24.848;2023-08-17T01:22:37;5.68;;;4.88;;
41946;SDS011;27638;42.184;24.848;2023-08-17T01:25:05;5.32;;;4.78;;
41946;SDS011;27638;42.184;24.848;2023-08-17T01:27:33;6.53;;;4.57;;
41946;SDS011;27638;42.184;24.848;2023-08-17T01:30:04;5.15;;;4.45;;
41946;SDS011;27638;42.184;24.848;2023-08-17T01:32:33;7.70;;;5.55;;
41946;SDS011;27638;42.184;24.848;2023-08-17T01:35:09;6.47;;;5.13;;
41946;SDS011;27638;42.184;24.848;2023-08-17T01:37:41;7.35;;;5.72;;
41946;SDS011;27638;42.184;24.848;2023-08-17T01:40:07;8.77;;;6.05;;
41946;SDS011;27638;42.184;24.848;2023-08-17T01:42:34;11.30;;;6.95;;
41946;SDS011;27638;42.184;24.848;2023-08-17T01:45:01;6.68;;;5.72;;
41946;SDS011;27638;42.184;24.848;2023-08-17T01:47:27;6.28;;;5.30;;
41946;SDS011;27638;42.184;24.848;2023-08-17T01:49:52;7.40;;;5.43;;
41946;SDS011;27638;42.184;24.848;2023-08-17T01:52:18;7.28;;;5.70;;
41946;SDS011;27638;42.184;24.848;2023-08-17T01:54:43;9.20;;;6.80;;
41946;SDS011;27638;42.184;24.848;2023-08-17T01:57:08;10.80;;;6.20;;
41946;SDS011;27638;42.184;24.848;2023-08-17T01:59:34;10.40;;;7.05;;
41946;SDS011;27638;42.184;24.848;2023-08-17T02:01:59;11.27;;;7.32;;
41946;SDS011;27638;42.184;24.848;2023-08-17T02:04:25;11.93;;;8.80;;
41946;SDS011;27638;42.184;24.848;2023-08-17T02:06:50;13.13;;;9.65;;
41946;SDS011;27638;42.184;24.848;2023-08-17T02:09:16;11.77;;;9.95;;
41946;SDS011;27638;42.184;24.848;2023-08-17T02:11:41;13.93;;;10.30;;
41946;SDS011;27638;42.184;24.848;2023-08-17T02:14:07;16.20;;;9.52;;
41946;SDS011;27638;42.184;24.848;2023-08-17T02:16:32;10.30;;;8.35;;
41946;SDS011;27638;42.184;24.848;2023-08-17T02:18:57;11.73;;;9.23;;
41946;SDS011;27638;42.184;24.848;2023-08-17T02:21:23;12.32;;;8.50;;
41946;SDS011;27638;42.184;24.848;2023-08-17T02:23:48;11.00;;;8.98;;
41946;SDS011;27638;42.184;24.848;2023-08-17T02:26:14;13.25;;;8.43;;
41946;SDS011;27638;42.184;24.848;2023-08-17T02:28:39;16.38;;;8.73;;
41946;SDS011;27638;42.184;24.848;2023-08-17T02:31:04;14.55;;;8.07;;
41946;SDS011;27638;42.184;24.848;2023-08-17T02:33:31;10.25;;;7.95;;
41946;SDS011;27638;42.184;24.848;2023-08-17T02:35:58;10.10;;;7.82;;
41946;SDS011;27638;42.184;24.848;2023-08-17T02:38:23;11.13;;;7.57;;
41946;SDS011;27638;42.184;24.848;2023-08-17T02:40:49;9.00;;;7.72;;
41946;SDS011;27638;42.184;24.848;2023-08-17T02:43:15;11.07;;;8.45;;
41946;SDS011;27638;42.184;24.848;2023-08-17T02:45:40;9.70;;;7.45;;
41946;SDS011;27638;42.184;24.848;2023-08-17T02:48:06;11.77;;;7.97;;
41946;SDS011;27638;42.184;24.848;2023-08-17T02:50:31;10.60;;;7.47;;
41946;SDS011;27638;42.184;24.848;2023-08-17T02:52:56;10.82;;;7.28;;
41946;SDS011;27638;42.184;24.848;2023-08-17T02:55:22;9.50;;;7.07;;
41946;SDS011;27638;42.184;24.848;2023-08-17T02:57:47;9.55;;;6.82;;
41946;SDS011;27638;42.184;24.848;2023-08-17T03:00:13;11.27;;;6.60;;
41946;SDS011;27638;42.184;24.848;2023-08-17T03:02:39;9.02;;;6.40;;
41946;SDS011;27638;42.184;24.848;2023-08-17T03:05:04;11.00;;;6.78;;
41946;SDS011;27638;42.184;24.848;2023-08-17T03:07:30;8.27;;;6.43;;
41946;SDS011;27638;42.184;24.848;2023-08-17T03:09:55;9.23;;;5.93;;
41946;SDS011;27638;42.184;24.848;2023-08-17T03:12:20;9.40;;;5.78;;
41946;SDS011;27638;42.184;24.848;2023-08-17T03:14:46;13.07;;;6.10;;
41946;SDS011;27638;42.184;24.848;2023-08-17T03:17:11;13.38;;;6.50;;
41946;SDS011;27638;42.184;24.848;2023-08-17T03:19:37;10.77;;;5.85;;
41946;SDS011;27638;42.184;24.848;2023-08-17T03:22:02;7.60;;;5.82;;
41946;SDS011;27638;42.184;24.848;2023-08-17T03:24:28;8.73;;;5.90;;
41946;SDS011;27638;42.184;24.848;2023-08-17T03:26:53;7.28;;;5.70;;
41946;SDS011;27638;42.184;24.848;2023-08-17T03:29:18;10.10;;;5.90;;
41946;SDS011;27638;42.184;24.848;2023-08-17T03:31:44;10.70;;;6.47;;
41946;SDS011;27638;42.184;24.848;2023-08-17T03:34:09;13.85;;;6.13;;
41946;SDS011;27638;42.184;24.848;2023-08-17T03:36:35;11.68;;;6.63;;
41946;SDS011;27638;42.184;24.848;2023-08-17T03:39:00;9.23;;;6.22;;
41946;SDS011;27638;42.184;24.848;2023-08-17T03:41:25;12.23;;;6.95;;
41946;SDS011;27638;42.184;24.848;2023-08-17T03:43:51;9.57;;;5.82;;
41946;SDS011;27638;42.184;24.848;2023-08-17T03:46:16;7.25;;;5.85;;
41946;SDS011;27638;42.184;24.848;2023-08-17T03:48:42;9.90;;;6.28;;
41946;SDS011;27638;42.184;24.848;2023-08-17T03:51:07;11.13;;;5.95;;
41946;SDS011;27638;42.184;24.848;2023-08-17T03:53:33;10.68;;;5.75;;
41946;SDS011;27638;42.184;24.848;2023-08-17T03:55:58;9.93;;;6.00;;
41946;SDS011;27638;42.184;24.848;2023-08-17T03:58:24;10.70;;;5.65;;
41946;SDS011;27638;42.184;24.848;2023-08-17T04:00:52;15.48;;;6.65;;
41946;SDS011;27638;42.184;24.848;2023-08-17T04:03:21;11.38;;;6.15;;
41946;SDS011;27638;42.184;24.848;2023-08-17T04:05:46;12.15;;;6.13;;
41946;SDS011;27638;42.184;24.848;2023-08-17T04:08:12;9.45;;;6.10;;
41946;SDS011;27638;42.184;24.848;2023-08-17T04:10:37;10.38;;;6.15;;
41946;SDS011;27638;42.184;24.848;2023-08-17T04:13:03;9.23;;;5.68;;
41946;SDS011;27638;42.184;24.848;2023-08-17T04:15:29;7.53;;;5.50;;
41946;SDS011;27638;42.184;24.848;2023-08-17T04:17:55;12.15;;;5.65;;
41946;SDS011;27638;42.184;24.848;2023-08-17T04:20:20;8.45;;;6.13;;
41946;SDS011;27638;42.184;24.848;2023-08-17T04:22:47;7.05;;;5.72;;
41946;SDS011;27638;42.184;24.848;2023-08-17T04:25:13;10.43;;;6.18;;
41946;SDS011;27638;42.184;24.848;2023-08-17T04:27:38;11.35;;;5.72;;
41946;SDS011;27638;42.184;24.848;2023-08-17T04:30:04;10.35;;;6.32;;
41946;SDS011;27638;42.184;24.848;2023-08-17T04:32:30;10.18;;;6.45;;
41946;SDS011;27638;42.184;24.848;2023-08-17T04:34:55;10.57;;;6.35;;
41946;SDS011;27638;42.184;24.848;2023-08-17T04:37:21;11.52;;;6.70;;
41946;SDS011;27638;42.184;24.848;2023-08-17T04:39:47;10.45;;;5.90;;
41946;SDS011;27638;42.184;24.848;2023-08-17T04:42:13;15.93;;;6.70;;
41946;SDS011;27638;42.184;24.848;2023-08-17T04:44:39;19.17;;;8.00;;
41946;SDS011;27638;42.184;24.848;2023-08-17T04:47:05;12.25;;;6.95;;
41946;SDS011;27638;42.184;24.848;2023-08-17T04:49:30;18.35;;;7.03;;
41946;SDS011;27638;42.184;24.848;2023-08-17T04:51:56;10.77;;;5.97;;
41946;SDS011;27638;42.184;24.848;2023-08-17T04:54:21;10.23;;;6.30;;
41946;SDS011;27638;42.184;24.848;2023-08-17T04:56:47;11.02;;;6.35;;
41946;SDS011;27638;42.184;24.848;2023-08-17T04:59:12;12.52;;;6.90;;
41946;SDS011;27638;42.184;24.848;2023-08-17T05:01:38;10.02;;;5.88;;
41946;SDS011;27638;42.184;24.848;2023-08-17T05:04:03;17.55;;;7.47;;
41946;SDS011;27638;42.184;24.848;2023-08-17T05:06:29;11.07;;;5.55;;
41946;SDS011;27638;42.184;24.848;2023-08-17T05:08:56;7.57;;;5.57;;
41946;SDS011;27638;42.184;24.848;2023-08-17T05:11:21;13.85;;;5.95;;
41946;SDS011;27638;42.184;24.848;2023-08-17T05:13:47;18.65;;;7.20;;
41946;SDS011;27638;42.184;24.848;2023-08-17T05:16:12;30.05;;;9.05;;
41946;SDS011;27638;42.184;24.848;2023-08-17T05:18:38;21.27;;;7.38;;
41946;SDS011;27638;42.184;24.848;2023-08-17T05:21:03;17.60;;;6.72;;
41946;SDS011;27638;42.184;24.848;2023-08-17T05:23:29;9.68;;;5.32;;
41946;SDS011;27638;42.184;24.848;2023-08-17T05:25:54;6.57;;;5.57;;
41946;SDS011;27638;42.184;24.848;2023-08-17T05:28:20;8.40;;;5.50;;
41946;SDS011;27638;42.184;24.848;2023-08-17T05:30:46;9.23;;;5.25;;
41946;SDS011;27638;42.184;24.848;2023-08-17T05:33:11;9.73;;;5.38;;
41946;SDS011;27638;42.184;24.848;2023-08-17T05:35:37;6.22;;;4.95;;
41946;SDS011;27638;42.184;24.848;2023-08-17T05:38:03;6.38;;;5.00;;
41946;SDS011;27638;42.184;24.848;2023-08-17T05:40:29;10.88;;;4.65;;
41946;SDS011;27638;42.184;24.848;2023-08-17T05:42:55;5.68;;;5.07;;
41946;SDS011;27638;42.184;24.848;2023-08-17T05:45:21;9.63;;;5.38;;
41946;SDS011;27638;42.184;24.848;2023-08-17T05:47:47;11.75;;;6.35;;
41946;SDS011;27638;42.184;24.848;2023-08-17T05:50:12;18.33;;;7.28;;
41946;SDS011;27638;42.184;24.848;2023-08-17T05:52:38;12.73;;;7.22;;
41946;SDS011;27638;42.184;24.848;2023-08-17T05:55:03;12.43;;;7.00;;
41946;SDS011;27638;42.184;24.848;2023-08-17T05:57:29;10.35;;;6.28;;
41946;SDS011;27638;42.184;24.848;2023-08-17T05:59:54;14.40;;;6.25;;
41946;SDS011;27638;42.184;24.848;2023-08-17T06:02:20;11.25;;;5.20;;
41946;SDS011;27638;42.184;24.848;2023-08-17T06:04:46;15.38;;;6.07;;
41946;SDS011;27638;42.184;24.848;2023-08-17T06:07:12;9.27;;;5.18;;
41946;SDS011;27638;42.184;24.848;2023-08-17T06:09:38;12.70;;;5.50;;
41946;SDS011;27638;42.184;24.848;2023-08-17T06:12:03;7.95;;;5.40;;
41946;SDS011;27638;42.184;24.848;2023-08-17T06:14:29;9.50;;;4.93;;
41946;SDS011;27638;42.184;24.848;2023-08-17T06:16:54;7.30;;;4.88;;
41946;SDS011;27638;42.184;24.848;2023-08-17T06:19:20;10.13;;;4.90;;
41946;SDS011;27638;42.184;24.848;2023-08-17T06:21:45;10.70;;;4.72;;
41946;SDS011;27638;42.184;24.848;2023-08-17T06:36:10;7.82;;;4.80;;
41946;SDS011;27638;42.184;24.848;2023-08-17T06:38:41;7.80;;;5.07;;
41946;SDS011;27638;42.184;24.848;2023-08-17T06:41:07;6.82;;;4.53;;
41946;SDS011;27638;42.184;24.848;2023-08-17T06:43:32;5.95;;;4.03;;
41946;SDS011;27638;42.184;24.848;2023-08-17T06:45:58;7.93;;;4.40;;
41946;SDS011;27638;42.184;24.848;2023-08-17T06:48:25;7.05;;;4.22;;
41946;SDS011;27638;42.184;24.848;2023-08-17T06:50:50;7.65;;;4.57;;
41946;SDS011;27638;42.184;24.848;2023-08-17T06:53:16;6.05;;;3.63;;
41946;SDS011;27638;42.184;24.848;2023-08-17T06:55:41;6.97;;;4.20;;
41946;SDS011;27638;42.184;24.848;2023-08-17T06:58:07;8.77;;;4.13;;
41946;SDS011;27638;42.184;24.848;2023-08-17T07:00:32;8.38;;;4.43;;
41946;SDS011;27638;42.184;24.848;2023-08-17T07:02:58;7.47;;;4.03;;
41946;SDS011;27638;42.184;24.848;2023-08-17T07:05:24;6.88;;;4.03;;
41946;SDS011;27638;42.184;24.848;2023-08-17T07:07:49;6.75;;;4.82;;
41946;SDS011;27638;42.184;24.848;2023-08-17T07:10:15;7.50;;;4.32;;
41946;SDS011;27638;42.184;24.848;2023-08-17T07:12:40;7.72;;;3.85;;
41946;SDS011;27638;42.184;24.848;2023-08-17T07:15:06;6.85;;;4.03;;
41946;SDS011;27638;42.184;24.848;2023-08-17T07:17:32;7.00;;;4.40;;
41946;SDS011;27638;42.184;24.848;2023-08-17T07:19:59;4.38;;;3.60;;
41946;SDS011;27638;42.184;24.848;2023-08-17T07:22:25;4.47;;;3.38;;
41946;SDS011;27638;42.184;24.848;2023-08-17T07:24:50;4.82;;;3.25;;
41946;SDS011;27638;42.184;24.848;2023-08-17T07:27:16;4.75;;;3.40;;
41946;SDS011;27638;42.184;24.848;2023-08-17T07:29:41;6.40;;;3.60;;
41946;SDS011;27638;42.184;24.848;2023-08-17T07:32:06;5.93;;;3.47;;
41946;SDS011;27638;42.184;24.848;2023-08-17T07:34:32;7.57;;;3.45;;
41946;SDS011;27638;42.184;24.848;2023-08-17T07:36:58;4.57;;;3.60;;
41946;SDS011;27638;42.184;24.848;2023-08-17T07:39:23;5.10;;;3.65;;
41946;SDS011;27638;42.184;24.848;2023-08-17T07:41:49;5.07;;;3.60;;
41946;SDS011;27638;42.184;24.848;2023-08-17T07:44:14;6.50;;;3.25;;
41946;SDS011;27638;42.184;24.848;2023-08-17T07:46:40;4.40;;;3.15;;
41946;SDS011;27638;42.184;24.848;2023-08-17T07:49:05;6.25;;;3.38;;
41946;SDS011;27638;42.184;24.848;2023-08-17T07:51:31;7.85;;;3.97;;
41946;SDS011;27638;42.184;24.848;2023-08-17T07:53:59;4.43;;;3.20;;
41946;SDS011;27638;42.184;24.848;2023-08-17T07:56:25;5.30;;;4.75;;
41946;SDS011;27638;42.184;24.848;2023-08-17T07:58:50;5.60;;;2.97;;
41946;SDS011;27638;42.184;24.848;2023-08-17T08:01:16;3.63;;;3.20;;
41946;SDS011;27638;42.184;24.848;2023-08-17T08:03:41;34.25;;;8.50;;
41946;SDS011;27638;42.184;24.848;2023-08-17T08:06:07;5.22;;;3.40;;
41946;SDS011;27638;42.184;24.848;2023-08-17T08:08:32;4.93;;;3.88;;
41946;SDS011;27638;42.184;24.848;2023-08-17T08:10:58;5.53;;;3.83;;
41946;SDS011;27638;42.184;24.848;2023-08-17T08:13:23;6.40;;;3.17;;
41946;SDS011;27638;42.184;24.848;2023-08-17T08:15:49;11.60;;;5.55;;
41946;SDS011;27638;42.184;24.848;2023-08-17T08:18:14;5.05;;;4.05;;
41946;SDS011;27638;42.184;24.848;2023-08-17T08:20:40;21.13;;;6.53;;
41946;SDS011;27638;42.184;24.848;2023-08-17T08:23:05;4.05;;;3.13;;
41946;SDS011;27638;42.184;24.848;2023-08-17T08:25:31;7.03;;;3.25;;
41946;SDS011;27638;42.184;24.848;2023-08-17T08:27:56;7.03;;;3.17;;
41946;SDS011;27638;42.184;24.848;2023-08-17T08:30:22;6.68;;;4.00;;
41946;SDS011;27638;42.184;24.848;2023-08-17T08:32:47;3.33;;;2.80;;
41946;SDS011;27638;42.184;24.848;2023-08-17T08:35:13;6.18;;;3.58;;
41946;SDS011;27638;42.184;24.848;2023-08-17T08:37:38;3.78;;;3.03;;
41946;SDS011;27638;42.184;24.848;2023-08-17T08:40:04;3.90;;;2.90;;
41946;SDS011;27638;42.184;24.848;2023-08-17T08:42:35;6.05;;;2.90;;
41946;SDS011;27638;42.184;24.848;2023-08-17T08:45:01;6.32;;;2.63;;
41946;SDS011;27638;42.184;24.848;2023-08-17T08:47:26;3.00;;;2.50;;
41946;SDS011;27638;42.184;24.848;2023-08-17T08:49:57;6.50;;;2.80;;
41946;SDS011;27638;42.184;24.848;2023-08-17T08:52:28;5.50;;;3.00;;
41946;SDS011;27638;42.184;24.848;2023-08-17T08:55:03;4.18;;;2.80;;
41946;SDS011;27638;42.184;24.848;2023-08-17T08:57:36;4.95;;;2.60;;
41946;SDS011;27638;42.184;24.848;2023-08-17T09:00:02;5.65;;;2.53;;
41946;SDS011;27638;42.184;24.848;2023-08-17T09:02:28;5.50;;;2.80;;
41946;SDS011;27638;42.184;24.848;2023-08-17T09:04:55;6.50;;;2.75;;
41946;SDS011;27638;42.184;24.848;2023-08-17T09:07:21;4.95;;;2.45;;
41946;SDS011;27638;42.184;24.848;2023-08-17T09:09:47;6.78;;;2.90;;
41946;SDS011;27638;42.184;24.848;2023-08-17T09:12:13;6.53;;;2.92;;
41946;SDS011;27638;42.184;24.848;2023-08-17T09:14:38;4.20;;;2.58;;
41946;SDS011;27638;42.184;24.848;2023-08-17T09:17:06;3.22;;;2.47;;
41946;SDS011;27638;42.184;24.848;2023-08-17T09:19:32;4.63;;;2.35;;
41946;SDS011;27638;42.184;24.848;2023-08-17T09:21:58;3.83;;;2.92;;
41946;SDS011;27638;42.184;24.848;2023-08-17T09:24:36;4.47;;;3.20;;
41946;SDS011;27638;42.184;24.848;2023-08-17T09:27:01;5.65;;;2.13;;
41946;SDS011;27638;42.184;24.848;2023-08-17T09:29:27;4.43;;;2.70;;
41946;SDS011;27638;42.184;24.848;2023-08-17T09:31:56;6.13;;;2.70;;
41946;SDS011;27638;42.184;24.848;2023-08-17T09:34:22;3.30;;;2.92;;
41946;SDS011;27638;42.184;24.848;2023-08-17T09:36:48;3.88;;;2.50;;
41946;SDS011;27638;42.184;24.848;2023-08-17T09:39:15;4.75;;;2.72;;
41946;SDS011;27638;42.184;24.848;2023-08-17T09:41:41;15.00;;;4.10;;
41946;SDS011;27638;42.184;24.848;2023-08-17T09:44:07;3.13;;;2.83;;
41946;SDS011;27638;42.184;24.848;2023-08-17T09:46:32;5.65;;;2.50;;
41946;SDS011;27638;42.184;24.848;2023-08-17T09:48:58;4.85;;;2.80;;
41946;SDS011;27638;42.184;24.848;2023-08-17T09:51:24;2.95;;;2.58;;
41946;SDS011;27638;42.184;24.848;2023-08-17T09:53:53;3.58;;;2.70;;
41946;SDS011;27638;42.184;24.848;2023-08-17T09:56:19;3.42;;;2.60;;
41946;SDS011;27638;42.184;24.848;2023-08-17T09:58:48;5.78;;;2.90;;
41946;SDS011;27638;42.184;24.848;2023-08-17T10:01:14;5.22;;;3.03;;
41946;SDS011;27638;42.184;24.848;2023-08-17T10:03:43;4.57;;;2.90;;
41946;SDS011;27638;42.184;24.848;2023-08-17T10:06:15;4.00;;;2.63;;
41946;SDS011;27638;42.184;24.848;2023-08-17T10:08:46;5.30;;;2.90;;
41946;SDS011;27638;42.184;24.848;2023-08-17T10:11:15;4.07;;;2.92;;
41946;SDS011;27638;42.184;24.848;2023-08-17T10:14:02;6.43;;;2.58;;
41946;SDS011;27638;42.184;24.848;2023-08-17T10:16:45;4.60;;;2.42;;
41946;SDS011;27638;42.184;24.848;2023-08-17T10:22:06;4.57;;;2.50;;
41946;SDS011;27638;42.184;24.848;2023-08-17T10:24:54;3.55;;;2.80;;
41946;SDS011;27638;42.184;24.848;2023-08-17T10:27:22;4.03;;;3.03;;
41946;SDS011;27638;42.184;24.848;2023-08-17T10:29:47;3.72;;;2.58;;
41946;SDS011;27638;42.184;24.848;2023-08-17T10:32:15;2.83;;;2.58;;
41946;SDS011;27638;42.184;24.848;2023-08-17T10:34:41;3.05;;;2.45;;
41946;SDS011;27638;42.184;24.848;2023-08-17T10:37:07;2.65;;;2.35;;
41946;SDS011;27638;42.184;24.848;2023-08-17T10:39:33;3.10;;;2.60;;
41946;SDS011;27638;42.184;24.848;2023-08-17T10:41:59;6.20;;;2.83;;
41946;SDS011;27638;42.184;24.848;2023-08-17T10:44:43;2.90;;;2.40;;
41946;SDS011;27638;42.184;24.848;2023-08-17T10:47:23;4.22;;;2.45;;
41946;SDS011;27638;42.184;24.848;2023-08-17T10:49:49;3.00;;;2.28;;
41946;SDS011;27638;42.184;24.848;2023-08-17T10:54:56;2.42;;;2.10;;
41946;SDS011;27638;42.184;24.848;2023-08-17T10:57:27;3.95;;;2.58;;
41946;SDS011;27638;42.184;24.848;2023-08-17T11:02:33;2.53;;;2.20;;
41946;SDS011;27638;42.184;24.848;2023-08-17T11:04:58;3.50;;;2.22;;
41946;SDS011;27638;42.184;24.848;2023-08-17T11:07:25;3.85;;;2.33;;
41946;SDS011;27638;42.184;24.848;2023-08-17T11:09:53;2.88;;;2.40;;
41946;SDS011;27638;42.184;24.848;2023-08-17T11:12:25;27.30;;;13.10;;
41946;SDS011;27638;42.184;24.848;2023-08-17T11:14:51;21.65;;;10.50;;
41946;SDS011;27638;42.184;24.848;2023-08-17T11:17:19;5.40;;;3.22;;
41946;SDS011;27638;42.184;24.848;2023-08-17T11:19:45;2.60;;;2.38;;
41946;SDS011;27638;42.184;24.848;2023-08-17T11:22:11;3.38;;;2.40;;
41946;SDS011;27638;42.184;24.848;2023-08-17T11:24:37;2.90;;;2.30;;
41946;SDS011;27638;42.184;24.848;2023-08-17T11:27:05;3.28;;;2.35;;
41946;SDS011;27638;42.184;24.848;2023-08-17T11:29:31;2.92;;;2.08;;
41946;SDS011;27638;42.184;24.848;2023-08-17T11:31:57;4.57;;;2.58;;
41946;SDS011;27638;42.184;24.848;2023-08-17T11:46:01;3.15;;;2.45;;
41946;SDS011;27638;42.184;24.848;2023-08-17T11:48:27;2.85;;;2.38;;
41946;SDS011;27638;42.184;24.848;2023-08-17T11:50:53;3.45;;;2.40;;
41946;SDS011;27638;42.184;24.848;2023-08-17T11:53:23;3.75;;;2.38;;
41946;SDS011;27638;42.184;24.848;2023-08-17T11:55:48;3.17;;;2.40;;
41946;SDS011;27638;42.184;24.848;2023-08-17T11:58:14;2.85;;;2.22;;
41946;SDS011;27638;42.184;24.848;2023-08-17T12:00:41;2.47;;;2.25;;
41946;SDS011;27638;42.184;24.848;2023-08-17T12:03:07;3.78;;;2.13;;
41946;SDS011;27638;42.184;24.848;2023-08-17T12:05:33;7.68;;;3.03;;
41946;SDS011;27638;42.184;24.848;2023-08-17T12:07:58;4.05;;;2.30;;
41946;SDS011;27638;42.184;24.848;2023-08-17T12:10:27;2.70;;;2.38;;
41946;SDS011;27638;42.184;24.848;2023-08-17T12:13:02;3.03;;;2.25;;
41946;SDS011;27638;42.184;24.848;2023-08-17T12:15:34;4.60;;;2.30;;
41946;SDS011;27638;42.184;24.848;2023-08-17T12:18:01;2.50;;;2.17;;
41946;SDS011;27638;42.184;24.848;2023-08-17T12:20:29;3.47;;;2.35;;
41946;SDS011;27638;42.184;24.848;2023-08-17T12:22:56;2.35;;;2.15;;
41946;SDS011;27638;42.184;24.848;2023-08-17T12:25:24;3.40;;;2.25;;
41946;SDS011;27638;42.184;24.848;2023-08-17T12:27:50;3.13;;;2.10;;
41946;SDS011;27638;42.184;24.848;2023-08-17T12:30:26;2.50;;;2.30;;
41946;SDS011;27638;42.184;24.848;2023-08-17T12:32:53;2.88;;;2.30;;
41946;SDS011;27638;42.184;24.848;2023-08-17T12:35:19;3.63;;;2.47;;
41946;SDS011;27638;42.184;24.848;2023-08-17T12:37:46;2.10;;;1.90;;
41946;SDS011;27638;42.184;24.848;2023-08-17T12:40:12;2.20;;;1.92;;
41946;SDS011;27638;42.184;24.848;2023-08-17T12:42:38;2.72;;;2.03;;
41946;SDS011;27638;42.184;24.848;2023-08-17T12:45:03;2.22;;;2.03;;
41946;SDS011;27638;42.184;24.848;2023-08-17T12:47:29;2.42;;;2.22;;
41946;SDS011;27638;42.184;24.848;2023-08-17T12:49:55;3.15;;;2.30;;
41946;SDS011;27638;42.184;24.848;2023-08-17T12:52:20;3.33;;;2.88;;
41946;SDS011;27638;42.184;24.848;2023-08-17T12:54:45;3.00;;;2.30;;
41946;SDS011;27638;42.184;24.848;2023-08-17T12:57:11;2.80;;;2.20;;
41946;SDS011;27638;42.184;24.848;2023-08-17T12:59:37;4.38;;;2.20;;
41946;SDS011;27638;42.184;24.848;2023-08-17T13:02:02;2.88;;;2.38;;
41946;SDS011;27638;42.184;24.848;2023-08-17T13:04:27;5.32;;;2.72;;
41946;SDS011;27638;42.184;24.848;2023-08-17T13:06:53;2.50;;;2.28;;
41946;SDS011;27638;42.184;24.848;2023-08-17T13:09:20;5.03;;;2.20;;
41946;SDS011;27638;42.184;24.848;2023-08-17T13:11:45;3.35;;;2.25;;
41946;SDS011;27638;42.184;24.848;2023-08-17T13:14:12;4.25;;;2.30;;
41946;SDS011;27638;42.184;24.848;2023-08-17T13:16:38;4.18;;;2.60;;
41946;SDS011;27638;42.184;24.848;2023-08-17T13:19:04;5.13;;;2.35;;
41946;SDS011;27638;42.184;24.848;2023-08-17T13:21:29;3.53;;;2.40;;
41946;SDS011;27638;42.184;24.848;2023-08-17T13:23:55;4.57;;;2.53;;
41946;SDS011;27638;42.184;24.848;2023-08-17T13:26:21;3.72;;;2.70;;
41946;SDS011;27638;42.184;24.848;2023-08-17T13:28:47;3.45;;;2.67;;
41946;SDS011;27638;42.184;24.848;2023-08-17T13:31:12;6.00;;;3.25;;
41946;SDS011;27638;42.184;24.848;2023-08-17T13:33:38;3.80;;;2.45;;
41946;SDS011;27638;42.184;24.848;2023-08-17T13:36:03;3.00;;;2.63;;
41946;SDS011;27638;42.184;24.848;2023-08-17T13:38:29;3.38;;;2.53;;
41946;SDS011;27638;42.184;24.848;2023-08-17T13:40:54;3.95;;;2.58;;
41946;SDS011;27638;42.184;24.848;2023-08-17T13:43:19;3.35;;;3.00;;
41946;SDS011;27638;42.184;24.848;2023-08-17T13:45:45;4.50;;;2.63;;
41946;SDS011;27638;42.184;24.848;2023-08-17T13:48:10;4.15;;;2.75;;
41946;SDS011;27638;42.184;24.848;2023-08-17T13:50:37;3.08;;;2.78;;
41946;SDS011;27638;42.184;24.848;2023-08-17T13:53:04;4.05;;;2.65;;
41946;SDS011;27638;42.184;24.848;2023-08-17T13:55:29;3.90;;;2.60;;
41946;SDS011;27638;42.184;24.848;2023-08-17T13:57:55;2.95;;;2.60;;
41946;SDS011;27638;42.184;24.848;2023-08-17T14:00:22;3.55;;;2.60;;
41946;SDS011;27638;42.184;24.848;2023-08-17T14:02:47;3.05;;;2.72;;
41946;SDS011;27638;42.184;24.848;2023-08-17T14:05:13;3.05;;;2.35;;
41946;SDS011;27638;42.184;24.848;2023-08-17T14:07:39;2.40;;;2.20;;
41946;SDS011;27638;42.184;24.848;2023-08-17T14:10:04;6.38;;;2.78;;
41946;SDS011;27638;42.184;24.848;2023-08-17T14:12:30;3.35;;;2.60;;
41946;SDS011;27638;42.184;24.848;2023-08-17T14:14:55;4.28;;;2.60;;
41946;SDS011;27638;42.184;24.848;2023-08-17T14:17:21;5.60;;;3.05;;
41946;SDS011;27638;42.184;24.848;2023-08-17T14:19:46;3.95;;;2.78;;
41946;SDS011;27638;42.184;24.848;2023-08-17T14:22:12;5.57;;;2.70;;
41946;SDS011;27638;42.184;24.848;2023-08-17T14:24:37;3.30;;;2.20;;
41946;SDS011;27638;42.184;24.848;2023-08-17T14:27:02;3.30;;;2.85;;
41946;SDS011;27638;42.184;24.848;2023-08-17T14:29:28;3.83;;;2.60;;
41946;SDS011;27638;42.184;24.848;2023-08-17T14:31:53;4.10;;;2.95;;
41946;SDS011;27638;42.184;24.848;2023-08-17T14:34:19;3.53;;;2.83;;
41946;SDS011;27638;42.184;24.848;2023-08-17T14:36:46;4.28;;;3.33;;
41946;SDS011;27638;42.184;24.848;2023-08-17T14:39:12;3.03;;;2.83;;
41946;SDS011;27638;42.184;24.848;2023-08-17T14:41:37;3.03;;;2.67;;
41946;SDS011;27638;42.184;24.848;2023-08-17T14:44:03;3.47;;;2.78;;
41946;SDS011;27638;42.184;24.848;2023-08-17T14:46:28;4.88;;;3.42;;
41946;SDS011;27638;42.184;24.848;2023-08-17T14:48:54;3.83;;;3.42;;
41946;SDS011;27638;42.184;24.848;2023-08-17T14:51:20;5.57;;;3.45;;
41946;SDS011;27638;42.184;24.848;2023-08-17T14:53:45;3.75;;;3.35;;
41946;SDS011;27638;42.184;24.848;2023-08-17T14:56:10;3.65;;;2.80;;
41946;SDS011;27638;42.184;24.848;2023-08-17T14:58:36;4.35;;;2.90;;
41946;SDS011;27638;42.184;24.848;2023-08-17T15:01:02;3.63;;;3.15;;
41946;SDS011;27638;42.184;24.848;2023-08-17T15:03:28;4.45;;;3.08;;
41946;SDS011;27638;42.184;24.848;2023-08-17T15:05:53;3.55;;;2.90;;